createdAt,value
2022-07-27T00:01:39.444Z,100052.73
2022-07-27T00:04:08.340Z,100049.31
2022-07-27T00:06:37.214Z,100054.58
2022-07-27T00:09:06.489Z,100057.02
2022-07-27T00:11:35.277Z,100050.33
2022-07-27T00:14:04.101Z,100060.01
2022-07-27T00:16:32.874Z,100051.62
2022-07-27T00:19:01.637Z,100056.07
2022-07-27T00:21:30.677Z,100058.20
2022-07-27T00:23:59.355Z,100060.07
2022-07-27T00:26:28.095Z,100056.66
2022-07-27T00:28:56.940Z,100061.61
2022-07-27T00:31:25.693Z,100067.06
2022-07-27T00:33:54.451Z,100070.38
2022-07-27T00:36:24.239Z,100069.23
2022-07-27T00:38:53.017Z,100073.58
2022-07-27T00:41:21.910Z,100075.33
2022-07-27T00:43:52.115Z,100080.34
2022-07-27T00:46:21.521Z,100083.10
2022-07-27T00:48:50.463Z,100074.76
2022-07-27T00:51:20.240Z,100076.01
2022-07-27T00:53:49.719Z,100078.67
2022-07-27T00:56:18.702Z,100084.16
2022-07-27T00:58:49.019Z,100080.39
2022-07-27T01:01:19.219Z,100086.39
2022-07-27T01:03:49.207Z,100080.13
2022-07-27T01:06:24.916Z,100081.00
2022-07-27T01:08:49.303Z,100077.05
2022-07-27T01:11:18.190Z,100076.29
2022-07-27T01:13:47.080Z,100083.09
2022-07-27T01:16:15.903Z,100085.20
2022-07-27T01:18:44.700Z,100084.18
2022-07-27T01:21:13.418Z,100083.69
2022-07-27T01:23:42.258Z,100089.30
2022-07-27T01:26:10.987Z,100092.03
2022-07-27T01:28:41.212Z,100087.55
2022-07-27T01:31:09.983Z,100091.47
2022-07-27T01:33:38.898Z,100095.61
2022-07-27T01:36:07.818Z,100089.44
2022-07-27T01:38:36.602Z,100091.41
2022-07-27T01:41:05.601Z,100088.11
2022-07-27T01:43:34.305Z,100086.50
2022-07-27T01:46:05.277Z,100084.11
2022-07-27T01:48:34.628Z,100086.84
2022-07-27T01:51:04.582Z,100083.80
2022-07-27T01:53:33.545Z,100092.27
2022-07-27T01:56:03.252Z,100092.27
2022-07-27T01:58:31.979Z,100095.70
2022-07-27T02:01:00.764Z,100100.60
2022-07-27T02:03:29.555Z,100093.18
2022-07-27T02:05:58.505Z,100091.08
2022-07-27T02:08:27.640Z,100087.30
2022-07-27T02:11:15.267Z,100086.25
2022-07-27T02:13:44.659Z,100087.58
2022-07-27T02:16:16.694Z,100092.83
2022-07-27T02:18:44.328Z,100096.96
2022-07-27T02:21:13.806Z,100098.22
2022-07-27T02:23:44.644Z,100100.11
2022-07-27T02:26:13.463Z,100100.28
2022-07-27T02:28:42.593Z,100101.74
2022-07-27T02:31:11.526Z,100098.38
2022-07-27T02:33:40.415Z,100106.58
2022-07-27T02:36:09.362Z,100109.98
2022-07-27T02:38:38.288Z,100109.73
2022-07-27T02:41:06.947Z,100113.72
2022-07-27T02:43:35.752Z,100101.31
2022-07-27T02:46:04.828Z,100102.44
2022-07-27T02:48:34.032Z,100101.05
2022-07-27T02:51:02.957Z,100100.77
2022-07-27T02:53:32.364Z,100098.38
2022-07-27T02:56:01.151Z,100101.25
2022-07-27T02:58:30.004Z,100092.92
2022-07-27T03:00:59.449Z,100104.75
2022-07-27T03:03:32.957Z,100100.34
2022-07-27T03:05:58.763Z,100105.58
2022-07-27T03:08:27.559Z,100107.75
2022-07-27T03:10:56.254Z,100109.44
2022-07-27T03:13:25.739Z,100115.95
2022-07-27T03:15:54.651Z,100115.66
2022-07-27T03:18:23.453Z,100113.13
2022-07-27T03:20:52.313Z,100119.38
2022-07-27T03:23:21.276Z,100125.61
2022-07-27T03:25:50.060Z,100120.22
2022-07-27T03:28:18.781Z,100123.98
2022-07-27T03:30:47.574Z,100121.70
2022-07-27T03:33:16.979Z,100122.39
2022-07-27T03:35:45.968Z,100118.69
2022-07-27T03:38:14.762Z,100114.48
2022-07-27T03:40:46.414Z,100112.24
2022-07-27T03:43:15.177Z,100117.64
2022-07-27T03:45:45.643Z,100115.39
2022-07-27T03:48:14.423Z,100109.16
2022-07-27T03:50:43.312Z,100101.48
2022-07-27T03:53:12.166Z,100100.81
2022-07-27T03:55:40.991Z,100096.40
2022-07-27T03:58:09.748Z,100087.95
2022-07-27T04:00:38.473Z,100093.64
2022-07-27T04:03:08.585Z,100097.76
2022-07-27T04:05:37.577Z,100099.64
2022-07-27T04:08:06.637Z,100101.06
2022-07-27T04:10:35.419Z,100104.48
2022-07-27T04:13:04.660Z,100107.00
2022-07-27T04:15:34.438Z,100103.84
2022-07-27T04:18:03.162Z,100105.93
2022-07-27T04:20:32.013Z,100105.64
2022-07-27T04:23:00.727Z,100104.83
2022-07-27T04:25:30.551Z,100106.36
2022-07-27T04:27:59.300Z,100104.44
2022-07-27T04:30:28.236Z,100097.92
2022-07-27T04:32:57.079Z,100097.73
2022-07-27T04:35:26.818Z,100097.88
2022-07-27T04:37:58.641Z,100104.67
2022-07-27T04:40:26.142Z,100101.17
2022-07-27T04:42:54.863Z,100095.41
2022-07-27T04:45:24.480Z,100101.75
2022-07-27T04:47:53.188Z,100094.95
2022-07-27T04:50:22.003Z,100088.53
2022-07-27T04:52:50.747Z,100086.27
2022-07-27T04:55:20.498Z,100085.62
2022-07-27T04:57:49.227Z,100096.48
2022-07-27T05:00:18.125Z,100105.26
2022-07-27T05:02:46.835Z,100100.81
2022-07-27T05:05:15.560Z,100106.16
2022-07-27T05:07:44.277Z,100107.03
2022-07-27T05:10:17.942Z,100110.52
2022-07-27T05:12:44.607Z,100103.61
2022-07-27T05:15:13.393Z,100112.17
2022-07-27T05:17:42.068Z,100107.16
2022-07-27T05:20:12.592Z,100109.52
2022-07-27T05:22:41.500Z,100114.05
2022-07-27T05:25:10.560Z,100112.35
2022-07-27T05:27:53.956Z,100112.33
2022-07-27T05:30:10.370Z,100114.18
2022-07-27T05:32:40.712Z,100111.33
2022-07-27T05:35:09.741Z,100114.04
2022-07-27T05:37:38.470Z,100113.21
2022-07-27T05:40:08.495Z,100114.20
2022-07-27T05:42:38.160Z,100113.59
2022-07-27T05:45:07.510Z,100117.52
2022-07-27T05:47:37.685Z,100120.03
2022-07-27T05:50:07.030Z,100127.39
2022-07-27T05:52:35.877Z,100126.08
2022-07-27T05:55:04.948Z,100129.25
2022-07-27T05:57:34.273Z,100131.45
2022-07-27T06:00:03.173Z,100135.06
2022-07-27T06:02:33.797Z,100139.29
2022-07-27T06:05:02.678Z,100145.50
2022-07-27T06:07:49.868Z,100153.03
2022-07-27T06:10:19.414Z,100159.77
2022-07-27T06:12:48.410Z,100159.07
2022-07-27T06:15:19.347Z,100156.90
2022-07-27T06:17:49.391Z,100155.22
2022-07-27T06:20:18.142Z,100151.03
2022-07-27T06:22:48.540Z,100153.55
2022-07-27T06:25:19.117Z,100145.50
2022-07-27T06:27:49.139Z,100150.36
2022-07-27T06:30:18.902Z,100141.25
2022-07-27T06:32:49.327Z,100143.34
2022-07-27T06:35:18.461Z,100145.69
2022-07-27T06:37:49.303Z,100147.36
2022-07-27T06:40:18.065Z,100140.91
2022-07-27T06:42:46.898Z,100146.45
2022-07-27T06:45:15.612Z,100149.94
2022-07-27T06:47:49.107Z,100147.44
2022-07-27T06:50:14.754Z,100151.81
2022-07-27T06:52:43.634Z,100151.61
2022-07-27T06:55:12.433Z,100151.16
2022-07-27T06:57:42.819Z,100153.63
2022-07-27T07:00:12.279Z,100164.31
2022-07-27T07:02:42.676Z,100161.81
2022-07-27T07:05:11.480Z,100163.63
2022-07-27T07:07:40.259Z,100151.88
2022-07-27T07:10:09.336Z,100155.33
2022-07-27T07:12:38.066Z,100154.64
2022-07-27T07:15:07.999Z,100155.23
2022-07-27T07:17:37.112Z,100148.77
2022-07-27T07:20:06.981Z,100148.84
2022-07-27T07:22:35.803Z,100146.15
2022-07-27T07:25:05.414Z,100142.69
2022-07-27T07:27:34.357Z,100146.02
2022-07-27T07:30:03.290Z,100149.82
2022-07-27T07:32:33.782Z,100145.89
2022-07-27T07:35:04.795Z,100143.97
2022-07-27T07:37:33.958Z,100146.58
2022-07-27T07:40:25.252Z,100157.42
2022-07-27T07:42:36.348Z,100154.33
2022-07-27T07:45:05.200Z,100158.00
2022-07-27T07:47:33.923Z,100155.67
2022-07-27T07:50:02.728Z,100161.67
2022-07-27T07:52:33.039Z,100152.09
2022-07-27T07:55:01.866Z,100154.31
2022-07-27T07:57:30.573Z,100154.80
2022-07-27T07:59:59.368Z,100163.41
2022-07-27T08:02:28.245Z,100161.30
2022-07-27T08:04:58.179Z,100164.91
2022-07-27T08:07:26.963Z,100164.08
2022-07-27T08:09:55.790Z,100165.56
2022-07-27T08:12:24.511Z,100165.89
2022-07-27T08:14:53.369Z,100172.58
2022-07-27T08:17:22.156Z,100169.52
2022-07-27T08:19:51.053Z,100168.80
2022-07-27T08:22:19.727Z,100173.75
2022-07-27T08:24:49.549Z,100182.56
2022-07-27T08:27:18.530Z,100180.39
2022-07-27T08:29:47.254Z,100185.35
2022-07-27T08:32:17.792Z,100182.91
2022-07-27T08:34:46.670Z,100177.45
2022-07-27T08:37:15.879Z,100185.30
2022-07-27T08:42:15.368Z,100188.42
2022-07-27T08:44:45.827Z,100183.43
2022-07-27T08:47:16.194Z,100172.84
2022-07-27T08:49:45.214Z,100173.75
2022-07-27T08:52:14.378Z,100174.65
2022-07-27T08:54:43.207Z,100169.87
2022-07-27T08:57:12.214Z,100174.32
2022-07-27T08:59:40.978Z,100174.25
2022-07-27T09:02:12.248Z,100173.44
2022-07-27T09:04:41.547Z,100183.50
2022-07-27T09:07:10.385Z,100186.83
2022-07-27T09:09:46.569Z,100187.03
2022-07-27T09:12:16.305Z,100195.23
2022-07-27T09:14:48.589Z,100193.23
2022-07-27T09:19:57.470Z,100195.53
2022-07-27T09:22:44.482Z,100198.23
2022-07-27T09:25:17.083Z,100189.73
2022-07-27T09:27:49.925Z,100203.37
2022-07-27T09:30:20.490Z,100198.58
2022-07-27T09:32:56.788Z,100193.23
2022-07-27T09:35:33.998Z,100188.54
2022-07-27T09:38:19.307Z,100190.09
2022-07-27T09:40:49.943Z,100180.92
2022-07-27T09:45:51.910Z,100178.98
2022-07-27T09:48:21.119Z,100184.27
2022-07-27T09:51:02.336Z,100181.83
2022-07-27T09:53:42.427Z,100169.13
2022-07-27T09:56:09.791Z,100164.69
2022-07-27T09:58:46.426Z,100166.97
2022-07-27T10:01:20.843Z,100174.04
2022-07-27T10:03:51.270Z,100178.08
2022-07-27T10:06:20.046Z,100176.16
2022-07-27T10:08:50.144Z,100175.48
2022-07-27T10:11:20.013Z,100174.55
2022-07-27T10:13:49.254Z,100183.70
2022-07-27T10:16:22.340Z,100166.13
2022-07-27T10:18:58.954Z,100171.04
2022-07-27T10:21:28.067Z,100162.10
2022-07-27T10:23:58.795Z,100170.50
2022-07-27T10:26:28.977Z,100164.39
2022-07-27T10:28:58.581Z,100163.50
2022-07-27T10:31:28.435Z,100163.55
2022-07-27T10:33:58.551Z,100164.45
2022-07-27T10:36:32.308Z,100160.31
2022-07-27T10:39:02.540Z,100157.25
2022-07-27T10:41:32.573Z,100157.65
2022-07-27T10:44:18.227Z,100154.39
2022-07-27T10:46:49.488Z,100158.37
2022-07-27T10:49:19.676Z,100168.74
2022-07-27T10:51:48.713Z,100163.66
2022-07-27T10:54:26.120Z,100164.16
2022-07-27T10:56:56.735Z,100171.80
2022-07-27T11:00:07.414Z,100167.43
2022-07-27T11:02:18.880Z,100163.98
2022-07-27T11:04:53.529Z,100168.73
2022-07-27T11:07:29.721Z,100170.22
2022-07-27T11:10:10.400Z,100174.19
2022-07-27T11:12:26.941Z,100178.28
2022-07-27T11:14:57.307Z,100174.12
2022-07-27T11:19:59.186Z,100163.73
2022-07-27T11:25:03.724Z,100173.77
2022-07-27T11:27:32.489Z,100181.02
2022-07-27T11:30:01.269Z,100174.97
2022-07-27T11:32:31.527Z,100175.53
2022-07-27T11:35:01.209Z,100176.31
2022-07-27T11:37:30.026Z,100171.86
2022-07-27T11:40:03.377Z,100184.21
2022-07-27T11:42:42.659Z,100184.61
2022-07-27T11:45:11.955Z,100184.61
2022-07-27T11:47:40.852Z,100194.33
2022-07-27T11:50:11.981Z,100192.70
2022-07-27T11:52:40.814Z,100193.80
2022-07-27T11:55:10.011Z,100191.58
2022-07-27T11:57:40.409Z,100195.27
2022-07-27T12:00:09.674Z,100201.79
2022-07-27T12:02:42.603Z,100194.86
2022-07-27T12:05:11.631Z,100192.63
2022-07-27T12:07:41.697Z,100196.64
2022-07-27T12:10:10.852Z,100197.20
2022-07-27T12:12:39.637Z,100193.26
2022-07-27T12:15:44.648Z,100201.89
2022-07-27T12:17:47.689Z,100202.13
2022-07-27T12:20:24.016Z,100200.53
2022-07-27T12:22:53.781Z,100196.55
2022-07-27T12:25:24.086Z,100195.86
2022-07-27T12:27:56.950Z,100187.72
2022-07-27T12:30:33.127Z,100185.59
2022-07-27T12:33:03.144Z,100185.27
2022-07-27T12:35:38.938Z,100187.02
2022-07-27T12:38:08.161Z,100171.84
2022-07-27T12:40:38.384Z,100175.52
2022-07-27T12:43:08.986Z,100182.48
2022-07-27T12:45:39.577Z,100176.86
2022-07-27T12:48:09.672Z,100179.13
2022-07-27T12:50:39.071Z,100181.27
2022-07-27T12:53:08.408Z,100177.50
2022-07-27T12:55:37.748Z,100177.97
2022-07-27T12:58:09.596Z,100173.92
2022-07-27T13:00:38.877Z,100177.50
2022-07-27T13:03:08.381Z,100175.94
2022-07-27T13:05:37.104Z,100181.56
2022-07-27T13:08:06.076Z,100177.96
2022-07-27T13:10:36.582Z,100178.88
2022-07-27T13:13:06.176Z,100190.18
2022-07-27T13:15:35.483Z,100185.86
2022-07-27T13:18:04.899Z,100184.29
2022-07-27T13:20:33.723Z,100193.86
2022-07-27T13:23:02.511Z,100181.09
2022-07-27T13:25:31.308Z,100186.10
2022-07-27T13:28:00.157Z,100179.69
2022-07-27T13:30:28.990Z,100185.53
2022-07-27T13:32:57.831Z,100185.16
2022-07-27T13:35:26.563Z,100177.40
2022-07-27T13:37:55.513Z,100185.67
2022-07-27T13:40:24.547Z,100186.19
2022-07-27T13:42:53.297Z,100195.02
2022-07-27T13:45:22.135Z,100196.70
2022-07-27T13:47:51.176Z,100194.23
2022-07-27T13:50:20.158Z,100196.30
2022-07-27T13:52:49.258Z,100205.41
2022-07-27T13:55:18.841Z,100215.48
2022-07-27T13:57:47.707Z,100217.45
2022-07-27T14:00:17.440Z,100216.48
2022-07-27T14:02:46.379Z,100216.89
2022-07-27T14:05:15.852Z,100221.61
2022-07-27T14:07:45.015Z,100223.95
2022-07-27T14:10:32.190Z,100228.83
2022-07-27T14:13:07.905Z,100225.66
2022-07-27T14:15:35.271Z,100236.47
2022-07-27T14:18:06.267Z,100237.50
2022-07-27T14:20:35.069Z,100230.12
2022-07-27T14:23:04.014Z,100232.31
2022-07-27T14:25:32.807Z,100230.36
2022-07-27T14:28:02.049Z,100234.81
2022-07-27T14:30:31.314Z,100238.46
2022-07-27T14:33:02.806Z,100243.48
2022-07-27T14:35:32.954Z,100247.69
2022-07-27T14:38:02.120Z,100256.98
2022-07-27T14:40:30.882Z,100255.11
2022-07-27T14:42:59.603Z,100244.03
2022-07-27T14:45:44.617Z,100246.41
2022-07-27T14:47:58.781Z,100246.24
2022-07-27T14:50:28.110Z,100247.03
2022-07-27T14:52:57.413Z,100246.39
2022-07-27T14:55:26.261Z,100245.20
2022-07-27T14:57:55.069Z,100233.98
2022-07-27T15:00:23.838Z,100239.34
2022-07-27T15:02:52.547Z,100246.70
2022-07-27T15:05:21.437Z,100244.67
2022-07-27T15:07:50.729Z,100238.45
2022-07-27T15:10:20.470Z,100241.47
2022-07-27T15:12:49.193Z,100240.64
2022-07-27T15:15:18.078Z,100227.87
2022-07-27T15:17:46.812Z,100234.52
2022-07-27T15:20:15.773Z,100236.08
2022-07-27T15:22:44.509Z,100228.42
2022-07-27T15:25:13.237Z,100239.47
2022-07-27T15:27:41.962Z,100234.81
2022-07-27T15:30:11.378Z,100241.94
2022-07-27T15:32:40.102Z,100237.73
2022-07-27T15:35:09.049Z,100252.30
2022-07-27T15:37:37.844Z,100239.96
2022-07-27T15:40:25.714Z,100241.49
2022-07-27T15:42:54.446Z,100235.39
2022-07-27T15:45:23.304Z,100241.77
2022-07-27T15:47:53.189Z,100234.31
2022-07-27T15:50:22.083Z,100229.83
2022-07-27T15:52:51.241Z,100226.96
2022-07-27T15:55:20.071Z,100216.02
2022-07-27T15:57:49.376Z,100215.24
2022-07-27T16:00:18.132Z,100215.46
2022-07-27T16:02:46.916Z,100217.73
2022-07-27T16:05:17.559Z,100219.87
2022-07-27T16:07:46.432Z,100217.33
2022-07-27T16:10:15.162Z,100213.91
2022-07-27T16:12:43.947Z,100209.79
2022-07-27T16:15:13.046Z,100201.75
2022-07-27T16:17:41.832Z,100196.40
2022-07-27T16:20:11.003Z,100197.80
2022-07-27T16:22:39.922Z,100204.36
2022-07-27T16:25:08.935Z,100198.67
2022-07-27T16:27:37.704Z,100201.88
2022-07-27T16:30:06.774Z,100195.12
2022-07-27T16:32:35.794Z,100186.82
2022-07-27T16:35:10.080Z,100180.39
2022-07-27T16:37:35.375Z,100177.38
2022-07-27T16:40:04.279Z,100180.56
2022-07-27T16:42:37.863Z,100186.24
2022-07-27T16:45:03.587Z,100183.44
2022-07-27T16:47:32.481Z,100189.50
2022-07-27T16:50:01.219Z,100187.70
2022-07-27T16:52:29.941Z,100179.64
2022-07-27T16:54:58.686Z,100182.34
2022-07-27T16:57:28.245Z,100187.19
2022-07-27T16:59:57.070Z,100182.14
2022-07-27T17:02:27.425Z,100189.34
2022-07-27T17:04:56.168Z,100185.09
2022-07-27T17:07:24.873Z,100185.52
2022-07-27T17:09:53.672Z,100183.84
2022-07-27T17:12:23.536Z,100183.47
2022-07-27T17:14:52.419Z,100192.09
2022-07-27T17:17:21.244Z,100192.39
2022-07-27T17:19:50.453Z,100191.64
2022-07-27T17:22:19.303Z,100202.81
2022-07-27T17:24:49.345Z,100200.80
2022-07-27T17:27:18.074Z,100199.51
2022-07-27T17:29:46.857Z,100193.76
2022-07-27T17:32:15.716Z,100191.54
2022-07-27T17:34:45.516Z,100188.12
2022-07-27T17:37:15.205Z,100192.89
2022-07-27T17:39:44.066Z,100194.77
2022-07-27T17:42:12.856Z,100186.77
2022-07-27T17:44:41.709Z,100190.98
2022-07-27T17:47:10.513Z,100194.22
2022-07-27T17:49:39.224Z,100200.41
2022-07-27T17:52:08.419Z,100199.63
2022-07-27T17:54:37.127Z,100196.31
2022-07-27T17:57:05.982Z,100199.13
2022-07-27T17:59:37.890Z,100202.42
2022-07-27T18:02:05.912Z,100202.64
2022-07-27T18:04:39.174Z,100210.79
2022-07-27T18:07:05.330Z,100204.86
2022-07-27T18:09:34.607Z,100206.24
2022-07-27T18:12:03.309Z,100210.75
2022-07-27T18:14:32.419Z,100212.16
2022-07-27T18:17:01.911Z,100209.89
2022-07-27T18:19:30.670Z,100205.33
2022-07-27T18:21:59.465Z,100211.97
2022-07-27T18:24:29.418Z,100209.14
2022-07-27T18:26:59.949Z,100209.14
2022-07-27T18:29:29.059Z,100212.19
2022-07-27T18:31:58.259Z,100212.99
2022-07-27T18:34:27.320Z,100219.21
2022-07-27T18:36:56.502Z,100221.33
2022-07-27T18:39:33.773Z,100226.89
2022-07-27T18:41:57.988Z,100227.87
2022-07-27T18:44:26.897Z,100230.00
2022-07-27T18:46:55.686Z,100238.00
2022-07-27T18:49:24.850Z,100241.42
2022-07-27T18:51:54.430Z,100244.98
2022-07-27T18:54:23.251Z,100246.56
2022-07-27T18:56:51.974Z,100249.23
2022-07-27T18:59:20.681Z,100250.80
2022-07-27T19:01:49.507Z,100257.00
2022-07-27T19:04:18.873Z,100263.59
2022-07-27T19:06:47.883Z,100264.76
2022-07-27T19:09:18.003Z,100266.23
2022-07-27T19:11:49.626Z,100266.44
2022-07-27T19:14:20.004Z,100272.43
2022-07-27T19:16:48.876Z,100272.08
2022-07-27T19:19:22.636Z,100277.27
2022-07-27T19:21:49.155Z,100287.17
2022-07-27T19:24:17.965Z,100282.56
2022-07-27T19:26:46.770Z,100284.52
2022-07-27T19:29:18.008Z,100288.03
2022-07-27T19:31:47.020Z,100295.73
2022-07-27T19:34:15.988Z,100295.34
2022-07-27T19:36:45.238Z,100302.30
2022-07-27T19:39:14.803Z,100300.88
2022-07-27T19:41:44.462Z,100305.81
2022-07-27T19:44:13.173Z,100304.53
2022-07-27T19:46:42.040Z,100307.13
2022-07-27T19:49:11.239Z,100306.39
2022-07-27T19:51:40.449Z,100310.33
2022-07-27T19:54:09.271Z,100313.79
2022-07-27T19:56:38.160Z,100316.13
2022-07-27T19:59:07.153Z,100314.67
2022-07-27T20:01:36.568Z,100314.97
2022-07-27T20:04:07.801Z,100319.63
2022-07-27T20:06:39.300Z,100318.45
2022-07-27T20:09:08.042Z,100327.62
2022-07-27T20:11:36.794Z,100327.03
2022-07-27T20:14:05.579Z,100327.85
2022-07-27T20:16:36.096Z,100334.06
2022-07-27T20:19:05.348Z,100337.41
2022-07-27T20:21:35.880Z,100344.80
2022-07-27T20:24:04.728Z,100342.42
2022-07-27T20:26:33.611Z,100345.94
2022-07-27T20:29:02.556Z,100352.70
2022-07-27T20:31:31.403Z,100354.64
2022-07-27T20:34:00.207Z,100354.05
2022-07-27T20:36:28.983Z,100360.20
2022-07-27T20:38:59.353Z,100363.95
2022-07-27T20:41:28.632Z,100366.60
2022-07-27T20:43:57.436Z,100363.75
2022-07-27T20:46:26.363Z,100363.03
2022-07-27T20:48:55.308Z,100367.62
2022-07-27T20:51:25.439Z,100369.08
2022-07-27T20:53:54.843Z,100367.16
2022-07-27T20:56:23.583Z,100372.22
2022-07-27T20:58:52.420Z,100368.52
2022-07-27T21:01:21.173Z,100372.26
2022-07-27T21:03:49.961Z,100373.46
2022-07-27T21:06:18.790Z,100381.66
2022-07-27T21:08:47.579Z,100387.22
2022-07-27T21:11:16.353Z,100386.61
2022-07-27T21:13:45.152Z,100390.23
2022-07-27T21:16:13.967Z,100393.39
2022-07-27T21:18:42.933Z,100387.00
2022-07-27T21:21:12.656Z,100397.24
2022-07-27T21:23:59.620Z,100400.98
2022-07-27T21:26:29.883Z,100399.53
2022-07-27T21:28:58.698Z,100413.51
2022-07-27T21:31:30.329Z,100405.07
2022-07-27T21:33:59.229Z,100407.44
2022-07-27T21:36:28.079Z,100408.55
2022-07-27T21:38:58.233Z,100416.27
2022-07-27T21:41:27.095Z,100420.34
2022-07-27T21:43:55.981Z,100414.68
2022-07-27T21:46:24.922Z,100421.91
2022-07-27T21:48:53.916Z,100419.61
2022-07-27T21:51:22.907Z,100417.45
2022-07-27T21:53:51.649Z,100420.70
2022-07-27T21:56:20.382Z,100422.73
2022-07-27T21:58:49.099Z,100428.75
2022-07-27T22:01:18.382Z,100424.75
2022-07-27T22:03:47.289Z,100435.00
2022-07-27T22:06:16.130Z,100440.53
2022-07-27T22:08:46.332Z,100434.86
2022-07-27T22:11:15.103Z,100437.15
2022-07-27T22:13:43.935Z,100435.45
2022-07-27T22:16:13.417Z,100442.53
2022-07-27T22:18:42.330Z,100446.37
2022-07-27T22:21:11.392Z,100447.81
2022-07-27T22:23:41.109Z,100453.22
2022-07-27T22:26:10.129Z,100459.59
2022-07-27T22:28:39.236Z,100458.49
2022-07-27T22:31:22.891Z,100463.91
2022-07-27T22:33:39.108Z,100461.84
2022-07-27T22:36:08.937Z,100466.37
2022-07-27T22:38:37.670Z,100463.23
2022-07-27T22:41:06.860Z,100465.41
2022-07-27T22:43:35.721Z,100462.02
2022-07-27T22:46:05.011Z,100467.65
2022-07-27T22:48:33.892Z,100466.55
2022-07-27T22:51:03.038Z,100473.28
2022-07-27T22:53:31.738Z,100474.93
2022-07-27T22:56:00.545Z,100473.12
2022-07-27T22:58:29.398Z,100471.91
2022-07-27T23:00:59.759Z,100471.66
2022-07-27T23:03:28.575Z,100471.75
2022-07-27T23:05:57.367Z,100473.77
2022-07-27T23:08:26.157Z,100473.88
2022-07-27T23:10:55.055Z,100467.59
2022-07-27T23:13:23.947Z,100466.00
2022-07-27T23:15:52.961Z,100470.55
2022-07-27T23:18:23.397Z,100471.03
2022-07-27T23:20:52.864Z,100468.16
2022-07-27T23:23:21.996Z,100468.73
2022-07-27T23:25:51.363Z,100472.14
2022-07-27T23:28:20.317Z,100469.12
2022-07-27T23:30:50.674Z,100471.79
2022-07-27T23:33:19.485Z,100469.98
2022-07-27T23:35:48.304Z,100463.14
2022-07-27T23:38:17.554Z,100458.80
2022-07-27T23:40:46.354Z,100458.54
2022-07-27T23:43:15.110Z,100462.41
2022-07-27T23:45:43.824Z,100467.17
2022-07-27T23:48:12.646Z,100469.34
2022-07-27T23:50:41.393Z,100475.84
2022-07-27T23:53:10.098Z,100476.38
2022-07-27T23:55:38.913Z,100473.25
2022-07-27T23:58:07.699Z,100466.20
